Mc Clellan Airfield
KMCC : now visible

Airfield :











YOU CAN JOIN US ON...

 
LOGIN :

Register | Disclaimer

   EN    FR    IT 

 









Legend :    VFR   Marginal VFR   IFR   Intensive IFR   Very Intensive IFR
Visi :
Ceiling :
>= 8 km
>= 3000ft
5 to 8 km
1000 to 3000 ft
1500m to 5 km
500 to 1000 ft
800 to 1500m
200 to 500 ft
< 800m
< 200 ft
Symbols :   Thunderstorms  Fog  Heavy snow  Heavy precipitations  Wind > 20 kt






- Airport Elevation : 77 ft


KMCC - Mc Clellan

CURRENT METAR :
  • 072055Z AUTO 30007KT 10SM FEW039 17/07 A3008 RMK AO2

EXPIRED METARs :
  • 072035Z AUTO VRB05KT 10SM SCT037 17/07 A3009 RMK AO2
  • 072015Z AUTO 00000KT 10SM FEW035 16/08 A3010 RMK AO2
  • 071955Z AUTO 00000KT 10SM FEW031 16/08 A3010 RMK AO2
  • 071935Z AUTO 05005KT 10SM SCT029 15/08 A3010 RMK AO2
  • 071915Z AUTO 34006KT 10SM FEW027 15/09 A3011 RMK AO2
  • 071855Z AUTO 33007KT 10SM FEW025 SCT030 15/09 A3011 RMK AO2
  • 071835Z AUTO 31005KT 10SM FEW025 14/09 A3011 RMK AO2

TAF KMCC
Valid from the 07 at 18:00 until the 08 at 18:00 UTC


071733Z 0718/0818 33004KT P6SM BKN100
FM072200 VRB05KT P6SM SCT100
FM080600 17005KT P6SM BKN250



MET'MAP, your aeronautical weather chart ! - Copyright ORBIFLY December 2007 - Disclaimer

ORBIFLY MET'MAP TEAM :

Programming & Development : Alexandra Zaïnal
Concept & original design : Baudouin d'Aumeries
Assistance for programming : Marc-Olivier Méhu
Technical & hardware support : Manuel Goepfert

Contact : metmap@orbifly.com




SOURCES & CREDITS :

   NOAA       Earth
Advisory